Aktualne dane pomiarowe

Uwaga, wersja testowa! Automatyczne pobieranie danych za pomocą narzędzi lub skryptów to umożliwiających jest zabronione.

Dane meteo z obszaru Polski uzyskane na podstawie depesz SYNOP pobieranych co godzinę z NWS. Najedź myszką na symbol przedstawiony w tabeli, aby uzyskać informacje co do jego znaczenia. Prosimy pamiętać, że to testowa wersja strony, która jeszcze nie jest ukończona. Stworzono również jest krótki FAQ dotyczący korzystania z tej podstrony Anomalie temperatury w chwili obecnej odniesione są do okresu referencyjnego 1951-2016. Okres ten będzie później zmieniony na 1981-2010. Kliknij ikonę aby pobrać plik CSV. Kliknij ikonę aby wygenerować mapę synoptyczną dla danego terminu.

Wybierz Datę:    

        

Lublin-Radawiec (12495)

Dane terminowe dla wybranej stacji. Kliknij datę, aby otrzymać dane z tego terminu dla wszystkich stacji.

TemperaturaZachmurzenieWiatrCiśnienieOpadyPogoda
 Data t td wb tx tn tg rh  Nt Nl Cl Cm Ch ws wd g1 g2 wx mslp ppp ch 24h 12h t ww ww w1 w2  
2019-07-07 23:00:00 11.1 5.9 8.0--- 7050.0wxwxwx3wx--31009.3 980.6 1.0---------
2019-07-07 22:00:00 12.6 5.6 8.6--- 6250.0wx-wx3wx--31008.5 980.0 0.8---------
2019-07-07 21:00:00 14.6 5.7 9.6--- 5545.0wxwxwx3wx--31008.2 979.9 1.1---------
2019-07-07 20:00:00 14.2 6.4 9.7--- 5950.0wxwxwx2wx--21007.9 979.6 1.5---------
2019-07-07 19:00:00 14.5 6.4 9.9--- 5850.0wxwxwx3wx---1007.5 979.2 1.2---------
2019-07-07 18:00:00 17.0 6.3 11.0 19.9 13.9- 4945.0wxwxwxwxwx2wx-1021006.8 978.8 0.8--12wx-w1--
2019-07-07 17:00:00 18.5 6.1 11.7--- 4440.0wxwxwxwxwx4wx---1006.0 978.1 0.0---------
2019-07-07 16:00:00 19.5 9.5 13.6--- 5229.0wxwxwxwx4wx---1005.8 978.0 -0.8---------
2019-07-07 15:00:00 19.0 11.6 14.4--- 6235.0wxwxwx4wx-1041005.8 978.0 -1.0---wx-w1--
2019-07-07 14:00:00 18.0 11.4 13.9--- 6528.0wxwxwxwx4wx--41006.0 978.1 -0.6---------
2019-07-07 13:00:00 14.4 11.5 12.5--- 8320.0wxwxwx5wx10--1007.1 978.8 0.5---wx-w1--
2019-07-07 12:00:00 14.8 12.4 13.2--- 8615.0wxwxwx6wx--61007.3 979.0 0.9--6wx-w1--
2019-07-07 11:00:00 16.9 12.5 14.0--- 7540.0wxwxwx5wx---1006.7 978.7 1.1---------
2019-07-07 10:00:00 17.9 13.5 15.0--- 7540.0wxwxwx4wx--41006.2 978.3 0.6---wx-w1--
2019-07-07 09:00:00 18.1 13.3 14.9--- 7440.0wxwxwx5wx--51006.0 978.1 0.8---wx-w1--
2019-07-07 08:00:00 18.4 12.5 14.6--- 6950.0wxwxwx4wx--41005.5 977.6 0.9---------
2019-07-07 07:00:00 19.2 13.2 15.3--- 6830.0wxwxwxwx4wx--41005.5 977.7 1.2---------
2019-07-07 06:00:00 17.7 13.3 14.8 19.2 13.8 13 7535.0wxwxwxwxwx2wx--21005.2 977.3 0.7--12wx-w1- 7.0
2019-07-07 05:00:00 16.6 13.2 14.3--- 8030.0wx-wx1wx--11004.7 976.7 -0.8---------
2019-07-07 04:00:00 14.5 13.3 13.6--- 9325.0wx-wxwx1wx--11004.7 976.5 -0.2---wx---
2019-07-07 03:00:00 14.9 12.7 13.4--- 8730.0wx-wx1wx--11004.8 976.6 0.2---wx---
2019-07-07 02:00:00 14.9 13.4 13.8--- 9125.0wx-wx4wx--41005.7 977.5 1.1---------
2019-07-07 01:00:00 14.7 13.2 13.6--- 9130.0wx-wx2wx---1004.9 976.7 -0.3---------
2019-07-07 00:00:00 15.1 12.3 13.2--- 8345.0wx-wx1wx--11004.6 976.4 -1.3--6wx-w1--
2019-07-06 23:00:00 15.4 12.3 13.3--- 8245.0wx-wx2wx--21004.5 976.4 -2.6---------
2019-07-06 22:00:00 16.6 12.4 13.8--- 7645.0wx-wx2wx--21005.0 977.0 -2.1---------
2019-07-06 21:00:00 17.9 12.7 14.5--- 7240.0wx-3wx--31005.6 977.7 -2.0---wx-w1--
2019-07-06 20:00:00 17.8 13.0 14.6--- 7435.0wx-wx1wx--11007.0 979.0 -0.9---------
2019-07-06 19:00:00 18.1 13.1 14.8--- 7335.0wx-wx2wx--21007.0 979.1 -1.0---wx-w1--
2019-07-06 18:00:00 19.2 13.2 15.3 21.5 15.1- 6830.0wx-wx1wx--11007.6 979.7 -0.8--12wx---
2019-07-06 17:00:00 20.8 12.6 15.7--- 5940.0wx-wx1wx--11007.6 979.9 -1.1---------
2019-07-06 16:00:00 21.0 12.5 15.7--- 5850.0wxwxwxwx1wx--11007.8 980.1 -1.2---------
2019-07-06 15:00:00 21.0 12.0 15.4--- 5645.0wxwxwxwx2wx--21008.2 980.5 -1.2---------
2019-07-06 14:00:00 21.0 12.0 15.4--- 5650.0wxwxwx2wx--21008.7 981.0 -1.1---------
2019-07-06 13:00:00 20.3 11.3 14.8--- 5645.0wxwxwx3wx--31009.1 981.3 -1.0---------
2019-07-06 12:00:00 19.4 10.8 14.2--- 5845.0wxwxwx4wx-1141009.6 981.7 -1.1- 0.06------
2019-07-06 11:00:00 19.9 10.4 14.2--- 5440.0wxwxwx4wx-941010.0 982.1 -0.9---------
2019-07-06 10:00:00 19.5 10.8 14.2--- 5740.0wxwxwx4wx--41010.2 982.3 -0.7---------
2019-07-06 09:00:00 18.8 11.2 14.1--- 6140.0wxwxwxwx5wx-1151010.8 982.8 -0.5---------
2019-07-06 08:00:00 18.4 11.8 14.2--- 6540.0wx-wx5wx101051011.0 983.0 -0.3---------
2019-07-06 07:00:00 17.2 11.6 13.6--- 7040.0wxwxwxwxwx4wx--41011.1 983.0 -0.1---------
2019-07-06 06:00:00 15.1 11.0 12.4 16.8 10.7 10 7740.0wxwxwxwxwx4wx--41011.7 983.3 0.1--12----- 2.3
2019-07-06 05:00:00 14.7 10.8 12.2--- 7745.0wxwxwxwx4wx--41011.7 983.3 0.0---------
2019-07-06 04:00:00 13.5 10.8 11.7--- 8435.0wxwxwxwx2wx--21011.6 983.1 -0.5---------
2019-07-06 03:00:00 11.4 9.7 10.2--- 8945.0wxwxwxwx2wx--21011.9 983.2 -0.5---------
2019-07-06 02:00:00 11.2 9.6 10.1--- 9045.0wxwxwxwx2wx--21012.1 983.3 -0.4---------
2019-07-06 01:00:00 11.2 9.4 10.0--- 8940.0wx-wxwx3wx--31012.4 983.6 0.0---------
2019-07-06 00:00:00 11.9 9.7 10.4--- 8640.0wx-2wx--21012.4 983.7 0.2--6wx-w1--
1.8 ms

 

Print Friendly, PDF & Email